sensor_id;sensor_type;location;lat;lon;timestamp;temperature;humidity
52495;DHT22;38405;53.212;5.660;2024-01-16T00:01:07;1.00;99.90
52495;DHT22;38405;53.212;5.660;2024-01-16T00:03:34;1.00;99.90
52495;DHT22;38405;53.212;5.660;2024-01-16T00:06:00;1.10;99.90
52495;DHT22;38405;53.212;5.660;2024-01-16T00:08:26;1.10;99.90
52495;DHT22;38405;53.212;5.660;2024-01-16T00:10:52;1.20;99.90
52495;DHT22;38405;53.212;5.660;2024-01-16T00:13:17;1.20;99.90
52495;DHT22;38405;53.212;5.660;2024-01-16T00:15:43;1.30;99.90
52495;DHT22;38405;53.212;5.660;2024-01-16T00:18:09;1.30;99.90
52495;DHT22;38405;53.212;5.660;2024-01-16T00:20:35;1.40;99.90
52495;DHT22;38405;53.212;5.660;2024-01-16T00:23:01;1.90;99.90
52495;DHT22;38405;53.212;5.660;2024-01-16T00:25:26;1.30;99.90
52495;DHT22;38405;53.212;5.660;2024-01-16T00:27:52;1.40;99.90
52495;DHT22;38405;53.212;5.660;2024-01-16T00:30:18;1.40;99.90
52495;DHT22;38405;53.212;5.660;2024-01-16T00:32:44;1.40;99.90
52495;DHT22;38405;53.212;5.660;2024-01-16T00:35:10;1.40;99.90
52495;DHT22;38405;53.212;5.660;2024-01-16T00:37:38;1.30;99.90
52495;DHT22;38405;53.212;5.660;2024-01-16T00:40:05;1.30;99.90
52495;DHT22;38405;53.212;5.660;2024-01-16T00:42:34;1.30;99.90
52495;DHT22;38405;53.212;5.660;2024-01-16T00:45:00;1.30;99.90
52495;DHT22;38405;53.212;5.660;2024-01-16T00:47:26;1.30;99.90
52495;DHT22;38405;53.212;5.660;2024-01-16T00:49:51;1.40;99.90
52495;DHT22;38405;53.212;5.660;2024-01-16T00:52:18;1.50;99.90
52495;DHT22;38405;53.212;5.660;2024-01-16T00:54:43;1.20;99.90
52495;DHT22;38405;53.212;5.660;2024-01-16T00:57:09;1.10;99.90
52495;DHT22;38405;53.212;5.660;2024-01-16T00:59:35;1.70;99.90
52495;DHT22;38405;53.212;5.660;2024-01-16T01:02:00;1.10;99.90
52495;DHT22;38405;53.212;5.660;2024-01-16T01:04:26;1.10;99.90
52495;DHT22;38405;53.212;5.660;2024-01-16T01:06:51;1.10;99.90
52495;DHT22;38405;53.212;5.660;2024-01-16T01:09:17;1.10;99.90
52495;DHT22;38405;53.212;5.660;2024-01-16T01:11:43;1.20;99.90
52495;DHT22;38405;53.212;5.660;2024-01-16T01:14:09;1.90;99.90
52495;DHT22;38405;53.212;5.660;2024-01-16T01:16:34;1.40;99.90
52495;DHT22;38405;53.212;5.660;2024-01-16T01:19:00;2.20;99.90
52495;DHT22;38405;53.212;5.660;2024-01-16T01:21:26;1.60;99.90
52495;DHT22;38405;53.212;5.660;2024-01-16T01:23:52;1.60;99.90
52495;DHT22;38405;53.212;5.660;2024-01-16T01:26:18;1.60;99.90
52495;DHT22;38405;53.212;5.660;2024-01-16T01:28:44;1.60;99.90
52495;DHT22;38405;53.212;5.660;2024-01-16T01:31:10;1.50;99.90
52495;DHT22;38405;53.212;5.660;2024-01-16T01:33:36;1.40;99.90
52495;DHT22;38405;53.212;5.660;2024-01-16T01:36:02;1.30;99.90
52495;DHT22;38405;53.212;5.660;2024-01-16T01:38:28;1.20;99.90
52495;DHT22;38405;53.212;5.660;2024-01-16T01:40:53;1.10;99.90
52495;DHT22;38405;53.212;5.660;2024-01-16T01:43:23;1.00;99.90
52495;DHT22;38405;53.212;5.660;2024-01-16T01:48:21;0.80;99.90
52495;DHT22;38405;53.212;5.660;2024-01-16T01:50:46;0.70;99.90
52495;DHT22;38405;53.212;5.660;2024-01-16T01:53:12;0.80;99.90
52495;DHT22;38405;53.212;5.660;2024-01-16T01:55:38;0.80;99.90
52495;DHT22;38405;53.212;5.660;2024-01-16T01:58:04;0.80;99.90
52495;DHT22;38405;53.212;5.660;2024-01-16T02:00:31;0.80;99.90
52495;DHT22;38405;53.212;5.660;2024-01-16T02:02:56;1.30;99.90
52495;DHT22;38405;53.212;5.660;2024-01-16T02:05:22;0.70;99.90
52495;DHT22;38405;53.212;5.660;2024-01-16T02:07:48;0.80;99.90
52495;DHT22;38405;53.212;5.660;2024-01-16T02:10:14;0.80;99.90
52495;DHT22;38405;53.212;5.660;2024-01-16T02:12:40;0.90;99.90
52495;DHT22;38405;53.212;5.660;2024-01-16T02:15:06;0.90;99.90
52495;DHT22;38405;53.212;5.660;2024-01-16T02:17:33;1.30;99.90
52495;DHT22;38405;53.212;5.660;2024-01-16T02:19:59;1.00;99.90
52495;DHT22;38405;53.212;5.660;2024-01-16T02:22:25;1.10;99.90
52495;DHT22;38405;53.212;5.660;2024-01-16T02:24:54;1.00;99.90
52495;DHT22;38405;53.212;5.660;2024-01-16T02:27:21;1.80;99.90
52495;DHT22;38405;53.212;5.660;2024-01-16T02:29:46;1.10;99.90
52495;DHT22;38405;53.212;5.660;2024-01-16T02:32:12;1.00;99.90
52495;DHT22;38405;53.212;5.660;2024-01-16T02:34:38;1.00;99.90
52495;DHT22;38405;53.212;5.660;2024-01-16T02:37:04;1.00;99.90
52495;DHT22;38405;53.212;5.660;2024-01-16T02:39:30;0.90;99.90
52495;DHT22;38405;53.212;5.660;2024-01-16T02:41:56;0.90;99.90
52495;DHT22;38405;53.212;5.660;2024-01-16T02:44:22;0.90;99.90
52495;DHT22;38405;53.212;5.660;2024-01-16T02:46:47;0.90;99.90
52495;DHT22;38405;53.212;5.660;2024-01-16T02:49:13;0.90;99.90
52495;DHT22;38405;53.212;5.660;2024-01-16T02:51:38;0.90;99.90
52495;DHT22;38405;53.212;5.660;2024-01-16T02:54:06;0.80;99.90
52495;DHT22;38405;53.212;5.660;2024-01-16T02:56:32;0.90;99.90
52495;DHT22;38405;53.212;5.660;2024-01-16T02:58:58;0.90;99.90
52495;DHT22;38405;53.212;5.660;2024-01-16T03:01:23;0.90;99.90
52495;DHT22;38405;53.212;5.660;2024-01-16T03:03:49;0.90;99.90
52495;DHT22;38405;53.212;5.660;2024-01-16T03:06:24;1.00;99.90
52495;DHT22;38405;53.212;5.660;2024-01-16T03:08:50;1.00;99.90
52495;DHT22;38405;53.212;5.660;2024-01-16T03:11:16;1.00;99.90
52495;DHT22;38405;53.212;5.660;2024-01-16T03:13:42;1.00;99.90
52495;DHT22;38405;53.212;5.660;2024-01-16T03:16:10;1.00;99.90
52495;DHT22;38405;53.212;5.660;2024-01-16T03:18:37;1.00;99.90
52495;DHT22;38405;53.212;5.660;2024-01-16T03:21:03;1.10;99.90
52495;DHT22;38405;53.212;5.660;2024-01-16T03:23:29;1.00;99.90
52495;DHT22;38405;53.212;5.660;2024-01-16T03:25:55;1.00;99.90
52495;DHT22;38405;53.212;5.660;2024-01-16T03:28:20;1.00;99.90
52495;DHT22;38405;53.212;5.660;2024-01-16T03:30:46;1.00;99.90
52495;DHT22;38405;53.212;5.660;2024-01-16T03:33:12;1.00;99.90
52495;DHT22;38405;53.212;5.660;2024-01-16T03:35:38;1.10;99.90
52495;DHT22;38405;53.212;5.660;2024-01-16T03:38:04;1.20;99.90
52495;DHT22;38405;53.212;5.660;2024-01-16T03:40:29;1.30;99.90
52495;DHT22;38405;53.212;5.660;2024-01-16T03:43:00;1.30;99.90
52495;DHT22;38405;53.212;5.660;2024-01-16T03:45:25;1.30;99.90
52495;DHT22;38405;53.212;5.660;2024-01-16T03:47:51;1.40;99.90
52495;DHT22;38405;53.212;5.660;2024-01-16T03:50:16;1.60;99.90
52495;DHT22;38405;53.212;5.660;2024-01-16T03:52:42;1.50;99.90
52495;DHT22;38405;53.212;5.660;2024-01-16T03:55:08;1.60;99.90
52495;DHT22;38405;53.212;5.660;2024-01-16T03:57:33;1.60;99.90
52495;DHT22;38405;53.212;5.660;2024-01-16T03:59:59;1.70;99.90
52495;DHT22;38405;53.212;5.660;2024-01-16T04:02:25;1.70;99.90
52495;DHT22;38405;53.212;5.660;2024-01-16T04:04:50;1.60;99.90
52495;DHT22;38405;53.212;5.660;2024-01-16T04:07:16;1.60;99.90
52495;DHT22;38405;53.212;5.660;2024-01-16T04:09:44;1.50;99.90
52495;DHT22;38405;53.212;5.660;2024-01-16T04:12:10;1.50;99.90
52495;DHT22;38405;53.212;5.660;2024-01-16T04:14:36;1.50;99.90
52495;DHT22;38405;53.212;5.660;2024-01-16T04:17:02;1.40;99.90
52495;DHT22;38405;53.212;5.660;2024-01-16T04:19:27;1.40;99.90
52495;DHT22;38405;53.212;5.660;2024-01-16T04:21:54;1.30;99.90
52495;DHT22;38405;53.212;5.660;2024-01-16T04:24:19;1.30;99.90
52495;DHT22;38405;53.212;5.660;2024-01-16T04:26:45;1.30;99.90
52495;DHT22;38405;53.212;5.660;2024-01-16T04:29:10;1.30;99.90
52495;DHT22;38405;53.212;5.660;2024-01-16T04:31:41;1.30;99.90
52495;DHT22;38405;53.212;5.660;2024-01-16T04:34:07;1.40;99.90
52495;DHT22;38405;53.212;5.660;2024-01-16T04:36:32;1.40;99.90
52495;DHT22;38405;53.212;5.660;2024-01-16T04:38:58;1.40;99.90
52495;DHT22;38405;53.212;5.660;2024-01-16T04:41:24;1.40;99.90
52495;DHT22;38405;53.212;5.660;2024-01-16T04:43:49;1.40;99.90
52495;DHT22;38405;53.212;5.660;2024-01-16T04:46:15;1.40;99.90
52495;DHT22;38405;53.212;5.660;2024-01-16T04:48:42;1.40;99.90
52495;DHT22;38405;53.212;5.660;2024-01-16T04:51:07;1.40;99.90
52495;DHT22;38405;53.212;5.660;2024-01-16T04:53:33;1.40;99.90
52495;DHT22;38405;53.212;5.660;2024-01-16T04:55:59;1.50;99.90
52495;DHT22;38405;53.212;5.660;2024-01-16T04:58:25;1.50;99.90
52495;DHT22;38405;53.212;5.660;2024-01-16T05:00:50;1.50;99.90
52495;DHT22;38405;53.212;5.660;2024-01-16T05:03:16;1.50;99.90
52495;DHT22;38405;53.212;5.660;2024-01-16T05:05:42;1.50;99.90
52495;DHT22;38405;53.212;5.660;2024-01-16T05:08:07;1.50;99.90
52495;DHT22;38405;53.212;5.660;2024-01-16T05:10:33;1.60;99.90
52495;DHT22;38405;53.212;5.660;2024-01-16T05:12:59;1.70;99.90
52495;DHT22;38405;53.212;5.660;2024-01-16T05:15:24;1.70;99.90
52495;DHT22;38405;53.212;5.660;2024-01-16T05:17:50;1.70;99.90
52495;DHT22;38405;53.212;5.660;2024-01-16T05:20:16;1.70;99.90
52495;DHT22;38405;53.212;5.660;2024-01-16T05:22:41;1.80;99.90
52495;DHT22;38405;53.212;5.660;2024-01-16T05:25:07;1.70;99.90
52495;DHT22;38405;53.212;5.660;2024-01-16T05:27:34;1.70;99.90
52495;DHT22;38405;53.212;5.660;2024-01-16T05:29:59;1.60;99.90
52495;DHT22;38405;53.212;5.660;2024-01-16T05:32:26;1.60;99.90
52495;DHT22;38405;53.212;5.660;2024-01-16T05:34:51;1.60;99.90
52495;DHT22;38405;53.212;5.660;2024-01-16T05:37:18;1.60;99.90
52495;DHT22;38405;53.212;5.660;2024-01-16T05:39:44;1.60;99.90
52495;DHT22;38405;53.212;5.660;2024-01-16T05:42:10;1.50;99.90
52495;DHT22;38405;53.212;5.660;2024-01-16T05:44:37;1.50;99.90
52495;DHT22;38405;53.212;5.660;2024-01-16T05:47:03;1.50;99.90
52495;DHT22;38405;53.212;5.660;2024-01-16T05:49:29;1.50;99.90
52495;DHT22;38405;53.212;5.660;2024-01-16T05:51:54;1.50;99.90
52495;DHT22;38405;53.212;5.660;2024-01-16T05:54:20;1.50;99.90
52495;DHT22;38405;53.212;5.660;2024-01-16T05:56:46;1.60;99.90
52495;DHT22;38405;53.212;5.660;2024-01-16T05:59:11;1.60;99.90
52495;DHT22;38405;53.212;5.660;2024-01-16T06:01:37;1.60;99.90
52495;DHT22;38405;53.212;5.660;2024-01-16T06:04:03;1.60;99.90
52495;DHT22;38405;53.212;5.660;2024-01-16T06:06:29;1.60;99.90
52495;DHT22;38405;53.212;5.660;2024-01-16T06:08:55;1.60;99.90
52495;DHT22;38405;53.212;5.660;2024-01-16T06:11:31;1.80;99.90
52495;DHT22;38405;53.212;5.660;2024-01-16T06:13:57;1.60;99.90
52495;DHT22;38405;53.212;5.660;2024-01-16T06:16:23;1.60;99.90
52495;DHT22;38405;53.212;5.660;2024-01-16T06:18:50;1.60;99.90
52495;DHT22;38405;53.212;5.660;2024-01-16T06:21:15;1.50;99.90
52495;DHT22;38405;53.212;5.660;2024-01-16T06:23:42;1.50;99.90
52495;DHT22;38405;53.212;5.660;2024-01-16T06:26:08;1.50;99.90
52495;DHT22;38405;53.212;5.660;2024-01-16T06:28:34;1.40;99.90
52495;DHT22;38405;53.212;5.660;2024-01-16T06:30:59;1.40;99.90
52495;DHT22;38405;53.212;5.660;2024-01-16T06:33:25;1.40;99.90
52495;DHT22;38405;53.212;5.660;2024-01-16T06:35:51;1.40;99.90
52495;DHT22;38405;53.212;5.660;2024-01-16T06:38:17;1.40;99.90
52495;DHT22;38405;53.212;5.660;2024-01-16T06:40:42;1.40;99.90
52495;DHT22;38405;53.212;5.660;2024-01-16T06:43:08;1.40;99.90
52495;DHT22;38405;53.212;5.660;2024-01-16T06:45:34;1.30;99.90
52495;DHT22;38405;53.212;5.660;2024-01-16T06:48:00;1.20;99.90
52495;DHT22;38405;53.212;5.660;2024-01-16T06:50:25;1.20;99.90
52495;DHT22;38405;53.212;5.660;2024-01-16T06:52:51;1.10;99.90
52495;DHT22;38405;53.212;5.660;2024-01-16T06:55:16;1.10;99.90
52495;DHT22;38405;53.212;5.660;2024-01-16T06:57:42;1.10;99.90
52495;DHT22;38405;53.212;5.660;2024-01-16T07:00:08;1.00;99.90
52495;DHT22;38405;53.212;5.660;2024-01-16T07:02:34;1.00;99.90
52495;DHT22;38405;53.212;5.660;2024-01-16T07:04:59;1.50;99.90
52495;DHT22;38405;53.212;5.660;2024-01-16T07:07:25;0.90;99.90
52495;DHT22;38405;53.212;5.660;2024-01-16T07:09:51;0.70;99.90
52495;DHT22;38405;53.212;5.660;2024-01-16T07:12:16;0.70;99.90
52495;DHT22;38405;53.212;5.660;2024-01-16T07:14:42;0.90;99.90
52495;DHT22;38405;53.212;5.660;2024-01-16T07:17:08;0.60;99.90
52495;DHT22;38405;53.212;5.660;2024-01-16T07:19:33;0.50;99.90
52495;DHT22;38405;53.212;5.660;2024-01-16T07:21:59;0.50;99.90
52495;DHT22;38405;53.212;5.660;2024-01-16T07:24:24;0.50;99.90
52495;DHT22;38405;53.212;5.660;2024-01-16T07:26:50;0.50;99.90
52495;DHT22;38405;53.212;5.660;2024-01-16T07:29:16;0.60;99.90
52495;DHT22;38405;53.212;5.660;2024-01-16T07:31:41;0.60;99.90
52495;DHT22;38405;53.212;5.660;2024-01-16T07:34:07;0.60;99.90
52495;DHT22;38405;53.212;5.660;2024-01-16T07:36:32;0.80;99.90
52495;DHT22;38405;53.212;5.660;2024-01-16T07:38:58;0.90;99.90
52495;DHT22;38405;53.212;5.660;2024-01-16T07:41:24;1.00;99.90
52495;DHT22;38405;53.212;5.660;2024-01-16T07:43:49;1.10;99.90
52495;DHT22;38405;53.212;5.660;2024-01-16T07:46:15;1.10;99.90
52495;DHT22;38405;53.212;5.660;2024-01-16T07:48:41;1.10;99.90
52495;DHT22;38405;53.212;5.660;2024-01-16T07:51:07;1.20;99.90
52495;DHT22;38405;53.212;5.660;2024-01-16T07:53:33;1.10;99.90
52495;DHT22;38405;53.212;5.660;2024-01-16T07:55:58;1.00;99.90
52495;DHT22;38405;53.212;5.660;2024-01-16T07:58:24;1.10;99.90
52495;DHT22;38405;53.212;5.660;2024-01-16T08:00:49;1.00;99.90
52495;DHT22;38405;53.212;5.660;2024-01-16T08:03:15;1.40;99.90
52495;DHT22;38405;53.212;5.660;2024-01-16T08:05:41;1.10;99.90
52495;DHT22;38405;53.212;5.660;2024-01-16T08:08:10;1.10;99.90
52495;DHT22;38405;53.212;5.660;2024-01-16T08:10:36;1.00;99.90
52495;DHT22;38405;53.212;5.660;2024-01-16T08:13:02;1.70;99.90
52495;DHT22;38405;53.212;5.660;2024-01-16T08:15:28;1.10;99.90
52495;DHT22;38405;53.212;5.660;2024-01-16T08:17:54;1.00;99.90
52495;DHT22;38405;53.212;5.660;2024-01-16T08:20:20;1.60;99.90
52495;DHT22;38405;53.212;5.660;2024-01-16T08:22:45;1.00;99.90
52495;DHT22;38405;53.212;5.660;2024-01-16T08:25:11;1.20;99.90
52495;DHT22;38405;53.212;5.660;2024-01-16T08:27:36;0.90;99.90
52495;DHT22;38405;53.212;5.660;2024-01-16T08:30:06;0.90;99.90
52495;DHT22;38405;53.212;5.660;2024-01-16T08:32:32;0.80;99.90
52495;DHT22;38405;53.212;5.660;2024-01-16T08:34:58;0.80;99.90
52495;DHT22;38405;53.212;5.660;2024-01-16T08:37:23;0.90;99.90
52495;DHT22;38405;53.212;5.660;2024-01-16T08:39:51;0.80;99.90
52495;DHT22;38405;53.212;5.660;2024-01-16T08:42:16;1.00;99.90
52495;DHT22;38405;53.212;5.660;2024-01-16T08:44:43;1.00;99.90
52495;DHT22;38405;53.212;5.660;2024-01-16T08:47:09;1.00;99.90
52495;DHT22;38405;53.212;5.660;2024-01-16T08:49:35;1.10;99.90
52495;DHT22;38405;53.212;5.660;2024-01-16T08:52:01;1.20;99.90
52495;DHT22;38405;53.212;5.660;2024-01-16T08:54:28;1.30;99.90
52495;DHT22;38405;53.212;5.660;2024-01-16T08:56:53;1.50;99.90
52495;DHT22;38405;53.212;5.660;2024-01-16T08:59:19;1.40;99.90
52495;DHT22;38405;53.212;5.660;2024-01-16T09:01:45;1.40;99.90
52495;DHT22;38405;53.212;5.660;2024-01-16T09:04:10;1.30;99.90
52495;DHT22;38405;53.212;5.660;2024-01-16T09:06:37;1.10;99.90
52495;DHT22;38405;53.212;5.660;2024-01-16T09:09:03;1.10;99.90
52495;DHT22;38405;53.212;5.660;2024-01-16T09:11:30;1.10;99.90
52495;DHT22;38405;53.212;5.660;2024-01-16T09:13:56;1.00;99.90
52495;DHT22;38405;53.212;5.660;2024-01-16T09:16:21;1.10;99.90
52495;DHT22;38405;53.212;5.660;2024-01-16T09:18:47;1.10;99.90
52495;DHT22;38405;53.212;5.660;2024-01-16T09:21:14;1.10;99.90
52495;DHT22;38405;53.212;5.660;2024-01-16T09:23:39;1.10;99.90
52495;DHT22;38405;53.212;5.660;2024-01-16T09:26:05;1.10;99.90
52495;DHT22;38405;53.212;5.660;2024-01-16T09:28:30;1.20;99.90
52495;DHT22;38405;53.212;5.660;2024-01-16T09:30:56;1.10;99.90
52495;DHT22;38405;53.212;5.660;2024-01-16T09:33:23;1.20;99.90
52495;DHT22;38405;53.212;5.660;2024-01-16T09:35:48;1.30;99.90
52495;DHT22;38405;53.212;5.660;2024-01-16T09:38:14;1.30;99.90
52495;DHT22;38405;53.212;5.660;2024-01-16T09:40:40;1.30;99.90
52495;DHT22;38405;53.212;5.660;2024-01-16T09:43:06;1.30;99.90
52495;DHT22;38405;53.212;5.660;2024-01-16T09:45:39;1.40;99.90
52495;DHT22;38405;53.212;5.660;2024-01-16T09:48:05;1.50;99.90
52495;DHT22;38405;53.212;5.660;2024-01-16T09:50:33;1.60;99.90
52495;DHT22;38405;53.212;5.660;2024-01-16T09:52:59;1.70;99.90
52495;DHT22;38405;53.212;5.660;2024-01-16T09:55:25;1.70;99.90
52495;DHT22;38405;53.212;5.660;2024-01-16T09:57:53;2.70;99.90
52495;DHT22;38405;53.212;5.660;2024-01-16T10:00:20;1.80;99.90
52495;DHT22;38405;53.212;5.660;2024-01-16T10:02:46;2.00;99.90
52495;DHT22;38405;53.212;5.660;2024-01-16T10:05:13;1.90;99.90
52495;DHT22;38405;53.212;5.660;2024-01-16T10:07:40;1.90;99.90
52495;DHT22;38405;53.212;5.660;2024-01-16T10:10:07;1.80;99.90
52495;DHT22;38405;53.212;5.660;2024-01-16T10:12:33;1.80;99.90
52495;DHT22;38405;53.212;5.660;2024-01-16T10:14:59;1.90;99.90
52495;DHT22;38405;53.212;5.660;2024-01-16T10:17:38;2.20;99.90
52495;DHT22;38405;53.212;5.660;2024-01-16T10:20:05;2.00;99.90
52495;DHT22;38405;53.212;5.660;2024-01-16T10:22:31;2.00;99.90
52495;DHT22;38405;53.212;5.660;2024-01-16T10:25:07;2.10;99.90
52495;DHT22;38405;53.212;5.660;2024-01-16T10:27:35;2.00;99.90
52495;DHT22;38405;53.212;5.660;2024-01-16T10:30:00;2.50;99.90
52495;DHT22;38405;53.212;5.660;2024-01-16T10:32:37;2.20;99.90
52495;DHT22;38405;53.212;5.660;2024-01-16T10:40:24;2.30;99.90
52495;DHT22;38405;53.212;5.660;2024-01-16T10:43:00;2.20;99.90
52495;DHT22;38405;53.212;5.660;2024-01-16T10:45:26;2.00;99.90
52495;DHT22;38405;53.212;5.660;2024-01-16T10:48:11;2.60;99.90
52495;DHT22;38405;53.212;5.660;2024-01-16T10:50:38;2.00;99.90
52495;DHT22;38405;53.212;5.660;2024-01-16T10:53:06;1.90;99.90
52495;DHT22;38405;53.212;5.660;2024-01-16T10:55:40;1.80;99.90
52495;DHT22;38405;53.212;5.660;2024-01-16T10:58:09;1.80;99.90
52495;DHT22;38405;53.212;5.660;2024-01-16T11:00:37;1.70;99.90
52495;DHT22;38405;53.212;5.660;2024-01-16T11:03:07;1.70;99.90
52495;DHT22;38405;53.212;5.660;2024-01-16T11:05:33;1.80;99.90
52495;DHT22;38405;53.212;5.660;2024-01-16T11:08:00;2.10;99.90
52495;DHT22;38405;53.212;5.660;2024-01-16T11:10:29;1.70;99.90
52495;DHT22;38405;53.212;5.660;2024-01-16T11:12:56;1.70;99.90
52495;DHT22;38405;53.212;5.660;2024-01-16T11:15:25;1.80;99.90
52495;DHT22;38405;53.212;5.660;2024-01-16T11:17:51;1.80;99.90
52495;DHT22;38405;53.212;5.660;2024-01-16T11:20:18;1.90;99.90
52495;DHT22;38405;53.212;5.660;2024-01-16T11:22:45;2.00;99.90
52495;DHT22;38405;53.212;5.660;2024-01-16T11:25:12;2.30;99.90
52495;DHT22;38405;53.212;5.660;2024-01-16T11:27:40;2.40;99.90
52495;DHT22;38405;53.212;5.660;2024-01-16T11:30:07;2.70;99.90
52495;DHT22;38405;53.212;5.660;2024-01-16T11:32:35;2.90;99.90
52495;DHT22;38405;53.212;5.660;2024-01-16T11:35:02;3.10;99.90
52495;DHT22;38405;53.212;5.660;2024-01-16T11:37:30;3.30;99.90
52495;DHT22;38405;53.212;5.660;2024-01-16T11:42:46;4.10;99.90
52495;DHT22;38405;53.212;5.660;2024-01-16T11:48:14;4.60;99.90
52495;DHT22;38405;53.212;5.660;2024-01-16T11:50:41;4.70;99.90
52495;DHT22;38405;53.212;5.660;2024-01-16T11:53:07;5.00;99.90
52495;DHT22;38405;53.212;5.660;2024-01-16T11:55:34;4.90;99.90
52495;DHT22;38405;53.212;5.660;2024-01-16T12:00:48;4.90;99.90
52495;DHT22;38405;53.212;5.660;2024-01-16T12:03:18;5.00;99.90
52495;DHT22;38405;53.212;5.660;2024-01-16T12:05:58;4.90;99.90
52495;DHT22;38405;53.212;5.660;2024-01-16T12:08:24;5.10;99.90
52495;DHT22;38405;53.212;5.660;2024-01-16T12:10:50;5.10;99.90
52495;DHT22;38405;53.212;5.660;2024-01-16T12:13:16;5.00;99.90
52495;DHT22;38405;53.212;5.660;2024-01-16T12:15:42;4.80;99.90
52495;DHT22;38405;53.212;5.660;2024-01-16T12:18:08;4.50;99.90
52495;DHT22;38405;53.212;5.660;2024-01-16T12:20:36;4.20;99.90
52495;DHT22;38405;53.212;5.660;2024-01-16T12:23:06;3.90;99.90
52495;DHT22;38405;53.212;5.660;2024-01-16T12:25:34;3.90;99.90
52495;DHT22;38405;53.212;5.660;2024-01-16T12:28:01;3.90;99.90
52495;DHT22;38405;53.212;5.660;2024-01-16T12:30:32;4.00;99.90
52495;DHT22;38405;53.212;5.660;2024-01-16T12:33:09;4.10;99.90
52495;DHT22;38405;53.212;5.660;2024-01-16T12:35:39;4.20;99.90
52495;DHT22;38405;53.212;5.660;2024-01-16T12:38:09;4.30;99.90
52495;DHT22;38405;53.212;5.660;2024-01-16T12:40:56;4.30;99.90
52495;DHT22;38405;53.212;5.660;2024-01-16T12:43:23;4.30;99.90
52495;DHT22;38405;53.212;5.660;2024-01-16T12:45:57;4.00;99.90
52495;DHT22;38405;53.212;5.660;2024-01-16T12:48:27;4.00;99.90
52495;DHT22;38405;53.212;5.660;2024-01-16T12:51:00;4.10;99.90
52495;DHT22;38405;53.212;5.660;2024-01-16T12:53:27;4.20;99.90
52495;DHT22;38405;53.212;5.660;2024-01-16T12:56:01;4.10;99.90
52495;DHT22;38405;53.212;5.660;2024-01-16T12:58:46;3.90;99.90
52495;DHT22;38405;53.212;5.660;2024-01-16T13:03:47;3.50;99.90
52495;DHT22;38405;53.212;5.660;2024-01-16T13:06:18;3.20;99.90
52495;DHT22;38405;53.212;5.660;2024-01-16T13:08:50;3.10;99.90
52495;DHT22;38405;53.212;5.660;2024-01-16T13:11:16;2.90;99.90
52495;DHT22;38405;53.212;5.660;2024-01-16T13:13:49;2.90;99.90
52495;DHT22;38405;53.212;5.660;2024-01-16T13:16:26;3.10;99.90
52495;DHT22;38405;53.212;5.660;2024-01-16T13:19:00;3.20;99.90
52495;DHT22;38405;53.212;5.660;2024-01-16T13:21:27;3.30;99.90
52495;DHT22;38405;53.212;5.660;2024-01-16T13:23:53;3.30;99.90
52495;DHT22;38405;53.212;5.660;2024-01-16T13:26:18;3.30;99.90
52495;DHT22;38405;53.212;5.660;2024-01-16T13:28:44;3.20;99.90
52495;DHT22;38405;53.212;5.660;2024-01-16T13:31:12;3.10;99.90
52495;DHT22;38405;53.212;5.660;2024-01-16T13:33:38;3.00;99.90
52495;DHT22;38405;53.212;5.660;2024-01-16T13:36:04;3.00;99.90
52495;DHT22;38405;53.212;5.660;2024-01-16T13:38:30;3.10;99.90
52495;DHT22;38405;53.212;5.660;2024-01-16T13:40:56;3.30;99.90
52495;DHT22;38405;53.212;5.660;2024-01-16T13:43:21;3.50;99.90
52495;DHT22;38405;53.212;5.660;2024-01-16T13:45:47;3.60;99.90
52495;DHT22;38405;53.212;5.660;2024-01-16T13:48:15;3.70;99.90
52495;DHT22;38405;53.212;5.660;2024-01-16T13:50:42;3.50;99.90
52495;DHT22;38405;53.212;5.660;2024-01-16T13:53:07;3.40;99.90
52495;DHT22;38405;53.212;5.660;2024-01-16T13:55:33;3.30;99.90
52495;DHT22;38405;53.212;5.660;2024-01-16T13:57:59;3.30;99.90
52495;DHT22;38405;53.212;5.660;2024-01-16T14:00:24;3.40;99.90
52495;DHT22;38405;53.212;5.660;2024-01-16T14:02:50;3.50;99.90
52495;DHT22;38405;53.212;5.660;2024-01-16T14:05:18;3.70;99.90
52495;DHT22;38405;53.212;5.660;2024-01-16T14:07:49;3.70;99.90
52495;DHT22;38405;53.212;5.660;2024-01-16T14:10:20;3.60;99.90
52495;DHT22;38405;53.212;5.660;2024-01-16T14:12:48;3.50;99.90
52495;DHT22;38405;53.212;5.660;2024-01-16T14:15:15;3.50;99.90
52495;DHT22;38405;53.212;5.660;2024-01-16T14:17:50;3.30;99.90
52495;DHT22;38405;53.212;5.660;2024-01-16T14:20:16;3.20;99.90
52495;DHT22;38405;53.212;5.660;2024-01-16T14:22:43;3.10;99.90
52495;DHT22;38405;53.212;5.660;2024-01-16T14:25:10;3.00;99.90
52495;DHT22;38405;53.212;5.660;2024-01-16T14:27:43;2.90;99.90
52495;DHT22;38405;53.212;5.660;2024-01-16T14:30:12;2.80;99.90
52495;DHT22;38405;53.212;5.660;2024-01-16T14:32:43;2.80;99.90
52495;DHT22;38405;53.212;5.660;2024-01-16T14:35:10;2.80;99.90
52495;DHT22;38405;53.212;5.660;2024-01-16T14:37:36;2.80;99.90
52495;DHT22;38405;53.212;5.660;2024-01-16T14:40:04;2.80;99.90
52495;DHT22;38405;53.212;5.660;2024-01-16T14:42:46;2.80;99.90
52495;DHT22;38405;53.212;5.660;2024-01-16T14:45:14;2.80;99.90
52495;DHT22;38405;53.212;5.660;2024-01-16T14:47:40;3.00;99.90
52495;DHT22;38405;53.212;5.660;2024-01-16T14:50:07;3.10;99.90
52495;DHT22;38405;53.212;5.660;2024-01-16T14:52:33;3.10;99.90
52495;DHT22;38405;53.212;5.660;2024-01-16T14:55:02;3.10;99.90
52495;DHT22;38405;53.212;5.660;2024-01-16T14:57:31;2.90;99.90
52495;DHT22;38405;53.212;5.660;2024-01-16T14:59:57;2.90;99.90
52495;DHT22;38405;53.212;5.660;2024-01-16T15:02:22;2.80;99.90
52495;DHT22;38405;53.212;5.660;2024-01-16T15:04:48;3.00;99.90
52495;DHT22;38405;53.212;5.660;2024-01-16T15:07:15;2.60;99.90
52495;DHT22;38405;53.212;5.660;2024-01-16T15:09:40;2.70;99.90
52495;DHT22;38405;53.212;5.660;2024-01-16T15:12:07;2.50;99.90
52495;DHT22;38405;53.212;5.660;2024-01-16T15:14:33;2.30;99.90
52495;DHT22;38405;53.212;5.660;2024-01-16T15:17:00;2.20;99.90
52495;DHT22;38405;53.212;5.660;2024-01-16T15:19:26;2.10;99.90
52495;DHT22;38405;53.212;5.660;2024-01-16T15:21:52;2.00;99.90
52495;DHT22;38405;53.212;5.660;2024-01-16T15:24:18;1.90;99.90
52495;DHT22;38405;53.212;5.660;2024-01-16T15:26:54;1.80;99.90
52495;DHT22;38405;53.212;5.660;2024-01-16T15:29:21;1.70;99.90
52495;DHT22;38405;53.212;5.660;2024-01-16T15:31:47;1.60;99.90
52495;DHT22;38405;53.212;5.660;2024-01-16T15:34:13;1.50;99.90
52495;DHT22;38405;53.212;5.660;2024-01-16T15:36:39;1.50;99.90
52495;DHT22;38405;53.212;5.660;2024-01-16T15:39:05;1.40;99.90
52495;DHT22;38405;53.212;5.660;2024-01-16T15:41:32;1.30;99.90
52495;DHT22;38405;53.212;5.660;2024-01-16T15:43:58;1.30;99.90
52495;DHT22;38405;53.212;5.660;2024-01-16T15:46:24;1.20;99.90
52495;DHT22;38405;53.212;5.660;2024-01-16T15:48:49;1.10;99.90
52495;DHT22;38405;53.212;5.660;2024-01-16T15:51:16;1.10;99.90
52495;DHT22;38405;53.212;5.660;2024-01-16T15:53:42;1.10;99.90
52495;DHT22;38405;53.212;5.660;2024-01-16T15:56:08;1.10;99.90
52495;DHT22;38405;53.212;5.660;2024-01-16T15:58:34;1.10;99.90
52495;DHT22;38405;53.212;5.660;2024-01-16T16:01:00;1.00;99.90